Malibu, CA

7:18 AM PDT on October 23, 2014 (GMT -0700)
Pt. Dume - Dume Drive | Change Station
CLOSE
Current Station
Personal Weather Station
Location: Malibu, CA
Elevation: 213 ft
Nearby Weather Stations

Elev 213 ft 34.02 °N, 118.81 °W | Updated 8 minutes ago

Clear
Clear
59.6 °F
Feels Like 59.6 °F
N
0.0
Wind Variable Wind from NE
Gusts 0.0 mph

Today
High -- | Low -- °F
--% Chance of Precip.
Yesterday
High -- | Low -- °F
Precip. -- in
7:06 AM 6:11 PM
Waning Crescent, 0% visible
Pressure 29.96 in
Visibility 10.0 miles
Clouds Scattered Clouds 30000 ft
Dew Point 51 °F
Humidity 72%
Rainfall 0.00 in
Snow Depth Not available.
UV 0 out of 12
Pollen 3.70 out of 12
Air Quality Not available.
Flu Activity Sporadic
METAR KNTD 231356Z 02006KT 10SM SCT300 14/09 A2996 RMK AO2 SLP145 T01390094 $

More Conditions Fewer Conditions

Pressure 29.96 in
Visibility 10.0 miles
Clouds Scattered Clouds 30000 ft
Dew Point 51 °F
Humidity 72%
Rainfall 0.00 in
Snow Depth Not available.
UV 0 out of 12
Pollen 3.70 out of 12
Air Quality Not available.
Flu Activity Sporadic
METAR KNTD 231356Z 02006KT 10SM SCT300 14/09 A2996 RMK AO2 SLP145 T01390094 $

More Conditions Fewer Conditions

10-Day Weather Forecast

Almanac

Astronomy

Oct. 23, 2014 Rise Set
Actual Time 7:06 AM PDT 6:11 PM PDT
Civil Twilight 6:41 AM PDT 6:37 PM PDT
Nautical Twilight 6:12 AM PDT 7:06 PM PDT
Astronomical Twilight 5:43 AM PDT 7:35 PM PDT
Moon 6:52 AM PDT 6:16 PM PDT
Length of Visible Light 11h 55m
Length of Day
11h 04m
Tomorrow will be 1m 58s shorter.
Waning Crescent, 0% of the Moon is Illuminated
Today
Waning Crescent
Oct 23
New
Oct 30
First Quarter
Nov 6
Full
Nov 14
Last Quarter

Today's Extremes

State Highs State Lows

Community

WunderPhotos

Upload Photos

1,764,256 photos uploaded!

Nearby

Air Quality

  Air Quality AQ Index Pollutant
Yesterday Good
OZONE
Thursday Good
PM10
Thursday Good
OZONE
Thursday Good
CO
Thursday Good
NO2

Snow Depth

Station Depth Elevation
Virginia Lakes Ridge 0 in 9200 ft
Leavitt Lake 1 in 9400 ft
Sonora Pass 0 in 8800 ft
Leavitt Meadows 1 in 7200 ft
Summit Meadow 2 in 9122 ft

Earthquake Activity

City Distance Mag. Time & Date
Solvang, California 82 miles 2.6 5:35 PM PDT
2014-10-22
Kettleman City, California 138 miles 2.5 9:08 AM PDT
2014-10-22
Minimum magnitude displayed is 2.5.

Coastal Water Temperatures

Place Temperature
Santa Monica Pier 69.1 °F
Los Angeles, CA 69.1 °F
La Jolla, CA 70.0 °F

Nearby Weather Stations